Time;durP1;ratioP1;P1;durP2;ratioP2;P2;SDS_P1;SDS_P2;PMS_P1;PMS_P2;Temp;Humidity;BMP_temperature;BMP_pressure;BME280_temperature;BME280_humidity;BME280_pressure;Samples;Min_cycle;Max_cycle;Signal;HPM_P1;HPM_P2
2022/08/15 00:00:26;;;;;;;7.80;5.30;;;20.30;99.90;;;;;;4999570;28;20152;-72
2022/08/15 00:02:57;;;;;;;10.23;5.55;;;20.30;99.90;;;;;;5000112;28;20057;-70
2022/08/15 00:05:28;;;;;;;8.20;5.30;;;20.40;99.90;;;;;;4997990;28;20107;-67
2022/08/15 00:07:55;;;;;;;7.85;5.88;;;20.40;99.90;;;;;;4999959;28;20965;-70
2022/08/15 00:10:22;;;;;;;8.38;5.38;;;20.40;99.90;;;;;;4998449;28;20136;-71
2022/08/15 00:13:17;;;;;;;5.72;4.90;;;20.40;99.90;;;;;;4999148;28;20173;-76
2022/08/15 00:15:46;;;;;;;7.55;6.05;;;20.40;99.90;;;;;;4998290;28;20046;-71
2022/08/15 00:18:15;;;;;;;6.40;5.05;;;20.40;99.90;;;;;;4999947;28;20046;-72
2022/08/15 00:20:47;;;;;;;9.00;5.22;;;20.50;99.90;;;;;;4998519;28;20167;-73
2022/08/15 00:23:18;;;;;;;5.90;4.50;;;20.50;99.90;;;;;;4998384;28;20376;-69
2022/08/15 00:25:53;;;;;;;8.82;5.85;;;20.50;99.90;;;;;;4999322;28;20072;-68
2022/08/15 00:28:25;;;;;;;5.65;5.15;;;20.50;99.90;;;;;;5000167;28;20056;-67
2022/08/15 00:31:08;;;;;;;7.95;4.63;;;20.50;99.90;;;;;;4998940;28;20054;-71
2022/08/15 00:33:39;;;;;;;5.45;4.95;;;20.50;99.90;;;;;;4997742;28;20438;-70
2022/08/15 00:36:09;;;;;;;8.23;4.93;;;20.60;99.90;;;;;;5000223;28;20050;-70
2022/08/15 00:38:58;;;;;;;9.02;4.55;;;20.60;99.90;;;;;;4996979;28;20476;-70
2022/08/15 00:41:40;;;;;;;6.22;5.00;;;20.60;99.90;;;;;;4998330;28;20151;-69
2022/08/15 00:44:21;;;;;;;5.35;4.28;;;20.60;99.90;;;;;;5000008;28;20076;-68
2022/08/15 00:47:12;;;;;;;;;;;20.60;99.90;;;;;;4998245;28;20045;-68
2022/08/15 00:49:39;;;;;;;7.68;6.25;;;20.60;99.90;;;;;;4997836;28;19987;-68
2022/08/15 00:52:29;;;;;;;5.32;4.82;;;20.60;99.90;;;;;;4996499;28;20057;-73
2022/08/15 00:55:03;;;;;;;6.38;5.32;;;20.60;99.90;;;;;;4997843;28;20432;-69
2022/08/15 00:57:34;;;;;;;8.95;5.88;;;20.70;99.90;;;;;;4996745;28;20065;-69
2022/08/15 01:00:26;;;;;;;8.18;5.13;;;20.70;99.90;;;;;;4997204;28;20038;-70
2022/08/15 01:03:22;;;;;;;8.45;4.72;;;20.70;99.90;;;;;;4997201;28;20086;-71
2022/08/15 01:05:54;;;;;;;7.22;5.05;;;20.70;99.90;;;;;;4996077;28;20050;-70
2022/08/15 01:08:31;;;;;;;5.70;5.10;;;20.70;99.90;;;;;;4998349;28;20095;-73
2022/08/15 01:11:24;;;;;;;6.47;5.82;;;20.70;99.90;;;;;;4997319;28;20145;-71
2022/08/15 01:14:01;;;;;;;6.75;5.32;;;20.70;99.90;;;;;;4998310;28;20045;-72
2022/08/15 01:16:48;;;;;;;9.63;6.13;;;20.70;99.90;;;;;;4996536;28;20151;-69
2022/08/15 01:19:22;;;;;;;6.72;5.13;;;20.70;99.90;;;;;;4996905;28;20794;-70
2022/08/15 01:21:49;;;;;;;10.63;6.50;;;20.60;99.90;;;;;;4999963;28;20176;-71
2022/08/15 01:24:44;;;;;;;6.65;5.95;;;20.60;99.90;;;;;;4998220;28;20756;-74
2022/08/15 01:27:55;;;;;;;4.97;4.45;;;20.60;99.90;;;;;;4996066;28;20048;-69
2022/08/15 01:30:26;;;;;;;7.55;6.05;;;20.60;99.90;;;;;;4998205;28;20064;-70
2022/08/15 01:33:14;;;;;;;10.98;4.82;;;20.60;99.90;;;;;;4998523;28;21438;-70
2022/08/15 01:35:44;;;;;;;9.15;5.70;;;20.60;99.90;;;;;;4997220;28;20072;-70
2022/08/15 01:38:21;;;;;;;8.32;5.22;;;20.60;99.90;;;;;;5000129;28;20136;-71
2022/08/15 01:41:13;;;;;;;5.53;4.95;;;20.60;99.90;;;;;;4999322;28;20581;-73
2022/08/15 01:43:57;;;;;;;7.68;6.15;;;20.60;99.90;;;;;;4995626;28;20042;-70
2022/08/15 01:46:57;;;;;;;7.93;6.40;;;20.60;99.90;;;;;;4996723;28;20992;-70
2022/08/15 01:49:33;;;;;;;12.95;6.90;;;20.60;99.90;;;;;;4997254;28;20108;-70
2022/08/15 01:52:07;;;;;;;14.38;8.07;;;20.50;99.90;;;;;;4997288;28;20049;-70
2022/08/15 01:54:56;;;;;;;10.50;7.35;;;20.40;99.90;;;;;;4998177;28;20541;-72
2022/08/15 01:57:33;;;;;;;13.45;8.85;;;20.30;99.90;;;;;;4998723;28;20364;-71
2022/08/15 02:00:01;;;;;;;10.18;7.55;;;20.30;99.90;;;;;;5000643;28;20071;-69
2022/08/15 02:02:41;;;;;;;17.38;8.93;;;20.30;99.90;;;;;;5001474;28;20046;-71
2022/08/15 02:05:13;;;;;;;9.32;8.40;;;20.30;99.90;;;;;;4998027;28;20046;-72
2022/08/15 02:07:42;;;;;;;14.50;9.48;;;20.20;99.90;;;;;;5000130;28;20380;-74
2022/08/15 02:10:29;;;;;;;12.20;8.10;;;20.10;99.90;;;;;;4998389;28;20149;-73
2022/08/15 02:12:56;;;;;;;13.07;8.13;;;20.10;99.90;;;;;;5001770;28;20049;-70
2022/08/15 02:15:41;;;;;;;12.20;8.05;;;20.00;99.90;;;;;;5000631;28;20049;-68
2022/08/15 02:18:10;;;;;;;9.98;7.30;;;19.90;99.90;;;;;;5000528;28;20060;-68
2022/08/15 02:20:47;;;;;;;10.00;9.00;;;19.90;99.90;;;;;;4999205;28;20074;-68
2022/08/15 02:23:17;;;;;;;16.00;8.13;;;19.80;99.90;;;;;;4998421;28;20067;-71
2022/08/15 02:25:48;;;;;;;24.17;9.85;;;19.80;99.90;;;;;;4999135;28;20781;-70
2022/08/15 02:28:17;;;;;;;10.57;7.93;;;19.80;99.90;;;;;;5000143;28;20069;-70
2022/08/15 02:31:13;;;;;;;11.05;8.90;;;19.70;99.90;;;;;;4999864;28;20378;-69
2022/08/15 02:33:41;;;;;;;11.00;9.90;;;19.70;99.90;;;;;;4997951;28;20667;-68
2022/08/15 02:36:13;;;;;;;15.57;10.32;;;19.70;99.90;;;;;;4999671;28;20077;-70
2022/08/15 02:39:00;;;;;;;11.07;8.40;;;19.70;99.90;;;;;;5000566;28;20061;-69
2022/08/15 02:41:33;;;;;;;14.27;10.60;;;19.70;99.90;;;;;;4998230;28;20073;-71
2022/08/15 02:44:11;;;;;;;13.50;11.52;;;19.70;99.90;;;;;;5000004;28;21128;-71
2022/08/15 02:46:48;;;;;;;14.85;11.27;;;19.70;99.90;;;;;;4999919;28;20061;-71
2022/08/15 02:49:36;;;;;;;15.68;13.25;;;19.70;99.90;;;;;;4998693;28;20085;-68
2022/08/15 02:52:18;;;;;;;18.05;14.05;;;19.70;99.90;;;;;;5001504;28;20132;-68
2022/08/15 02:54:49;;;;;;;18.13;15.82;;;19.70;99.90;;;;;;5001060;28;20162;-70
2022/08/15 02:57:31;;;;;;;;;;;19.70;99.90;;;;;;4998336;28;20049;-69
2022/08/15 03:00:19;;;;;;;17.40;11.20;;;19.80;99.90;;;;;;5015600;28;20035;-70
2022/08/15 03:02:54;;;;;;;14.50;12.63;;;19.70;99.90;;;;;;4999726;28;20075;-69
2022/08/15 03:05:27;;;;;;;14.95;10.80;;;19.70;99.90;;;;;;4997082;28;20088;-71
2022/08/15 03:07:54;;;;;;;;;;;19.70;99.90;;;;;;4999294;28;20104;-67
2022/08/15 03:10:24;;;;;;;12.63;9.80;;;19.70;99.90;;;;;;5015296;28;20020;-68
2022/08/15 03:13:07;;;;;;;11.20;10.02;;;19.70;99.90;;;;;;4999675;28;20046;-66
2022/08/15 03:15:44;;;;;;;10.18;9.10;;;19.70;99.90;;;;;;4999684;28;20046;-68
2022/08/15 03:18:27;;;;;;;10.80;9.73;;;19.60;99.90;;;;;;4999430;28;20128;-66
2022/08/15 03:21:05;;;;;;;10.68;9.73;;;19.70;99.90;;;;;;4998568;28;20054;-71
2022/08/15 03:23:33;;;;;;;12.88;9.48;;;19.60;99.90;;;;;;4997135;28;20058;-69
2022/08/15 03:26:10;;;;;;;10.98;9.95;;;19.60;99.90;;;;;;4998962;28;20050;-72
2022/08/15 03:28:59;;;;;;;9.77;8.93;;;19.60;99.90;;;;;;4998983;28;20237;-69
2022/08/15 03:31:37;;;;;;;8.90;7.68;;;19.60;99.90;;;;;;4997601;28;20065;-70
2022/08/15 03:34:13;;;;;;;10.48;9.32;;;19.60;99.90;;;;;;4999045;28;20133;-70
2022/08/15 03:36:45;;;;;;;8.30;7.38;;;19.60;99.90;;;;;;4998553;28;20060;-67
2022/08/15 03:39:22;;;;;;;8.73;7.83;;;19.60;99.90;;;;;;4996688;28;20169;-70
2022/08/15 03:41:50;;;;;;;12.48;8.52;;;19.60;99.90;;;;;;4997889;28;20296;-68
2022/08/15 03:44:24;;;;;;;9.27;7.75;;;19.60;99.90;;;;;;4997899;28;20049;-72
2022/08/15 03:46:55;;;;;;;14.05;8.38;;;19.60;99.90;;;;;;4999871;28;20198;-68
2022/08/15 03:49:24;;;;;;;8.38;7.63;;;19.60;99.90;;;;;;4997045;28;20054;-68
2022/08/15 03:52:09;;;;;;;10.23;7.75;;;19.60;99.90;;;;;;4998966;28;20040;-68
2022/08/15 03:54:38;;;;;;;10.80;8.27;;;19.60;99.90;;;;;;4998204;28;20050;-67
2022/08/15 03:57:07;;;;;;;8.57;7.57;;;19.60;99.90;;;;;;4997250;28;20053;-66
2022/08/15 03:59:35;;;;;;;10.55;7.25;;;19.60;99.90;;;;;;4996892;28;20147;-69
2022/08/15 04:02:10;;;;;;;14.00;8.95;;;19.60;99.90;;;;;;4998768;28;20061;-71
2022/08/15 04:04:57;;;;;;;11.77;8.35;;;19.60;99.90;;;;;;4997474;28;20076;-69
2022/08/15 04:07:28;;;;;;;9.57;8.68;;;19.60;99.90;;;;;;4996170;28;20057;-74
2022/08/15 04:10:14;;;;;;;11.48;9.32;;;19.60;99.90;;;;;;5013586;28;20042;-70
2022/08/15 04:13:04;;;;;;;13.18;7.47;;;19.60;99.90;;;;;;4997499;28;20184;-69
2022/08/15 04:15:35;;;;;;;8.93;7.78;;;19.60;99.90;;;;;;4996456;28;20057;-71
2022/08/15 04:18:03;;;;;;;8.57;7.55;;;19.60;99.90;;;;;;4997284;28;20077;-70
2022/08/15 04:20:54;;;;;;;11.90;7.65;;;19.60;99.90;;;;;;4996487;28;20057;-66
2022/08/15 04:23:22;;;;;;;7.88;7.07;;;19.60;99.90;;;;;;4995223;28;20046;-68
2022/08/15 04:25:50;;;;;;;9.45;7.45;;;19.60;99.90;;;;;;4998959;28;20041;-67
2022/08/15 04:28:26;;;;;;;10.02;7.20;;;19.60;99.90;;;;;;4997074;28;20072;-69
2022/08/15 04:31:17;;;;;;;7.88;7.18;;;19.60;99.90;;;;;;4996039;28;20049;-69
2022/08/15 04:33:47;;;;;;;11.05;7.80;;;19.60;99.90;;;;;;4997191;28;20207;-66
2022/08/15 04:36:36;;;;;;;8.40;7.60;;;19.60;99.90;;;;;;4996808;28;20061;-70
2022/08/15 04:39:03;;;;;;;8.90;7.88;;;19.60;99.90;;;;;;4997467;28;20141;-71
2022/08/15 04:41:39;;;;;;;8.75;7.47;;;19.60;99.90;;;;;;4996052;28;20432;-70
2022/08/15 04:44:19;;;;;;;;;;;19.70;99.90;;;;;;4997717;28;21300;-71
2022/08/15 04:46:55;;;;;;;8.25;7.45;;;19.70;99.90;;;;;;4997974;28;20570;-71
2022/08/15 04:49:23;;;;;;;9.85;7.75;;;19.60;99.90;;;;;;4995472;28;20724;-70
2022/08/15 04:51:50;;;;;;;8.45;7.63;;;19.60;99.90;;;;;;4996905;28;20084;-71
2022/08/15 04:54:20;;;;;;;10.67;8.30;;;19.60;99.90;;;;;;4997117;28;20150;-69
2022/08/15 04:57:10;;;;;;;10.00;7.45;;;19.60;99.90;;;;;;4997024;28;20053;-67
2022/08/15 04:59:45;;;;;;;8.48;7.47;;;19.60;99.90;;;;;;4996010;28;20056;-70
2022/08/15 05:02:37;;;;;;;9.60;8.70;;;19.70;99.90;;;;;;4996706;28;20046;-69
2022/08/15 05:05:23;;;;;;;13.30;7.53;;;19.70;99.90;;;;;;4994685;28;20652;-69
2022/08/15 05:08:04;;;;;;;10.63;6.80;;;19.70;99.90;;;;;;4996925;28;20053;-70
2022/08/15 05:10:40;;;;;;;7.20;6.47;;;19.70;99.90;;;;;;4995834;28;20165;-72
2022/08/15 05:13:10;;;;;;;10.07;9.02;;;19.70;99.90;;;;;;4995679;28;20163;-71
2022/08/15 05:15:39;;;;;;;8.45;6.72;;;19.80;99.90;;;;;;4996595;28;20054;-68
2022/08/15 05:18:25;;;;;;;10.48;8.00;;;19.80;99.90;;;;;;4997261;28;20139;-70
2022/08/15 05:20:55;;;;;;;9.23;8.35;;;19.90;99.90;;;;;;4997542;28;20049;-68
2022/08/15 05:23:28;;;;;;;9.27;8.40;;;20.00;99.90;;;;;;4994807;28;20112;-69
2022/08/15 05:26:02;;;;;;;10.93;7.47;;;20.00;99.90;;;;;;4997011;28;20079;-67
2022/08/15 05:28:31;;;;;;;8.48;7.60;;;20.10;99.90;;;;;;4996067;28;20050;-72
2022/08/15 05:31:07;;;;;;;7.18;6.47;;;20.20;99.90;;;;;;4996689;28;20093;-70
2022/08/15 05:33:44;;;;;;;14.32;8.40;;;20.30;99.90;;;;;;4995732;28;20069;-73
2022/08/15 05:36:33;;;;;;;17.33;8.77;;;20.40;99.90;;;;;;4997205;28;20054;-70
2022/08/15 05:39:18;;;;;;;13.32;10.15;;;20.60;99.90;;;;;;5012272;28;20050;-69
2022/08/15 05:42:01;;;;;;;13.45;7.88;;;20.70;99.90;;;;;;4997723;28;20861;-71
2022/08/15 05:45:20;;;;;;;12.32;8.32;;;20.80;99.90;;;;;;4996930;28;20477;-69
2022/08/15 05:48:04;;;;;;;10.10;7.38;;;20.90;99.90;;;;;;4995469;28;20420;-70
2022/08/15 05:50:52;;;;;;;8.35;7.18;;;21.00;99.90;;;;;;4996510;28;20104;-72
2022/08/15 05:53:44;;;;;;;10.40;7.88;;;21.10;99.90;;;;;;4995339;28;20350;-69
2022/08/15 05:56:20;;;;;;;10.63;8.02;;;21.10;99.90;;;;;;4994801;28;20074;-71
2022/08/15 05:59:01;;;;;;;11.07;7.47;;;21.20;99.90;;;;;;4996167;28;20058;-72
2022/08/15 06:01:45;;;;;;;10.93;7.85;;;21.20;99.90;;;;;;4994386;28;20065;-70
2022/08/15 06:05:03;;;;;;;10.80;7.25;;;21.30;99.90;;;;;;4996293;28;20081;-67
2022/08/15 06:07:31;;;;;;;13.60;8.45;;;21.30;99.90;;;;;;4995591;28;20161;-71
2022/08/15 06:10:49;;;;;;;9.13;7.22;;;21.30;99.90;;;;;;4995134;28;20112;-72
2022/08/15 06:13:24;;;;;;;9.57;8.60;;;21.40;99.90;;;;;;4994391;28;20050;-72
2022/08/15 06:15:55;;;;;;;7.18;6.47;;;21.40;99.90;;;;;;4996394;28;21529;-66
2022/08/15 06:18:24;;;;;;;9.95;7.80;;;21.40;99.90;;;;;;4996873;28;20050;-70
2022/08/15 06:21:19;;;;;;;13.47;7.30;;;21.50;99.90;;;;;;4995841;28;20045;-72
2022/08/15 06:23:48;;;;;;;9.82;8.73;;;21.50;99.90;;;;;;4969200;28;20053;-69
2022/08/15 06:26:29;;;;;;;7.90;7.18;;;21.60;99.90;;;;;;4995177;28;20049;-70
2022/08/15 06:29:23;;;;;;;10.65;8.18;;;21.60;99.90;;;;;;4996582;28;20046;-69
2022/08/15 06:32:01;;;;;;;12.45;7.97;;;21.70;99.90;;;;;;4995099;28;20054;-68
2022/08/15 06:34:39;;;;;;;14.43;8.82;;;21.80;99.90;;;;;;4996291;28;20052;-72
2022/08/15 06:37:25;;;;;;;8.50;7.70;;;21.80;99.90;;;;;;4995527;28;21457;-72
2022/08/15 06:40:04;;;;;;;9.63;8.45;;;21.80;99.90;;;;;;4995550;28;20168;-70
2022/08/15 06:42:41;;;;;;;10.52;8.02;;;21.90;99.90;;;;;;4997277;28;20053;-72
2022/08/15 06:45:33;;;;;;;9.90;8.15;;;21.90;99.90;;;;;;4997590;28;20057;-66
2022/08/15 06:48:13;;;;;;;10.60;7.75;;;22.00;99.90;;;;;;5000657;28;20072;-74
2022/08/15 06:51:05;;;;;;;11.68;8.13;;;22.10;99.90;;;;;;4999597;28;20057;-69
2022/08/15 06:53:48;;;;;;;9.65;8.57;;;22.20;99.90;;;;;;4999662;28;20066;-72
2022/08/15 06:56:31;;;;;;;8.55;7.40;;;22.30;99.90;;;;;;5000752;28;20148;-69
2022/08/15 06:59:36;;;;;;;8.13;7.43;;;22.40;99.90;;;;;;4999887;28;20074;-70
2022/08/15 07:02:34;;;;;;;9.13;8.35;;;22.50;99.90;;;;;;4999277;28;20547;-71
2022/08/15 07:05:22;;;;;;;8.73;7.32;;;22.60;99.90;;;;;;4999392;28;20067;-73
2022/08/15 07:08:19;;;;;;;8.80;8.00;;;22.70;99.90;;;;;;4998686;28;20083;-70
2022/08/15 07:11:30;;;;;;;10.82;8.70;;;22.80;99.90;;;;;;4989855;28;20155;-70
2022/08/15 07:14:20;;;;;;;8.63;7.82;;;22.90;99.90;;;;;;4974775;28;20298;-70
2022/08/15 07:17:12;;;;;;;10.82;8.63;;;23.10;99.90;;;;;;4998711;28;20049;-72
2022/08/15 07:19:44;;;;;;;9.02;8.18;;;23.20;99.90;;;;;;4998054;28;20100;-75
2022/08/15 07:22:33;;;;;;;8.25;7.38;;;23.30;99.90;;;;;;5002924;28;20057;-69
2022/08/15 07:25:12;;;;;;;7.90;7.25;;;23.40;99.90;;;;;;5000979;28;20049;-71
2022/08/15 07:27:58;;;;;;;10.43;8.23;;;23.50;99.90;;;;;;5000878;28;20837;-70
2022/08/15 07:30:50;;;;;;;9.95;8.00;;;23.60;99.90;;;;;;5001057;28;21373;-74
2022/08/15 07:33:45;;;;;;;13.18;6.97;;;23.70;99.90;;;;;;4998747;28;20058;-70
2022/08/15 07:36:31;;;;;;;8.30;7.47;;;23.80;99.90;;;;;;5000777;28;20369;-70
2022/08/15 07:39:29;;;;;;;12.27;9.05;;;23.90;99.90;;;;;;5001201;28;20053;-71
2022/08/15 07:42:15;;;;;;;15.95;9.80;;;24.00;99.90;;;;;;5000138;28;20065;-67
2022/08/15 07:45:08;;;;;;;11.73;7.47;;;24.00;99.90;;;;;;5001818;28;20848;-76
2022/08/15 07:47:37;;;;;;;10.32;8.30;;;24.00;99.90;;;;;;4999419;28;20068;-67
2022/08/15 07:50:10;;;;;;;;;;;23.90;99.90;;;;;;5000204;28;20057;-67
2022/08/15 07:52:55;;;;;;;17.58;9.57;;;23.90;99.90;;;;;;5001059;28;20028;-68
2022/08/15 07:55:24;;;;;;;12.77;10.32;;;23.80;99.90;;;;;;4996885;28;20045;-69
2022/08/15 07:58:16;;;;;;;8.43;7.57;;;23.80;99.90;;;;;;5002434;28;20054;-71
2022/08/15 08:01:27;;;;;;;12.82;8.48;;;23.80;99.90;;;;;;4999476;28;20144;-70
2022/08/15 08:04:12;;;;;;;10.80;7.68;;;23.80;99.90;;;;;;4997593;28;20057;-73
2022/08/15 08:07:03;;;;;;;8.60;7.70;;;23.80;99.90;;;;;;4999994;28;20049;-67
2022/08/15 08:09:39;;;;;;;8.70;7.80;;;23.90;99.90;;;;;;4997069;28;20060;-68
2022/08/15 08:12:39;;;;;;;8.85;7.97;;;23.90;99.90;;;;;;4998237;28;20050;-71
2022/08/15 08:15:23;;;;;;;8.45;7.68;;;24.00;99.90;;;;;;4997905;28;20379;-67
2022/08/15 08:18:20;;;;;;;10.40;8.05;;;24.20;99.90;;;;;;4998409;28;20132;-69
2022/08/15 08:21:03;;;;;;;8.52;7.72;;;24.30;99.90;;;;;;4997871;28;20062;-73
2022/08/15 08:23:53;;;;;;;16.10;10.38;;;24.40;99.90;;;;;;4997034;28;20057;-69
2022/08/15 08:26:49;;;;;;;13.50;7.55;;;24.50;99.90;;;;;;4997720;28;20792;-72
2022/08/15 08:29:45;;;;;;;9.80;8.82;;;24.60;99.90;;;;;;4997553;28;20132;-69
2022/08/15 08:32:27;;;;;;;;;;;24.60;99.90;;;;;;4999274;28;20061;-69
2022/08/15 08:35:30;;;;;;;9.75;8.05;;;24.70;99.90;;;;;;4999368;28;19949;-70
2022/08/15 08:37:57;;;;;;;;;;;24.70;99.90;;;;;;4999788;28;20061;-69
2022/08/15 08:43:42;;;;;;;7.93;7.20;;;24.80;99.90;;;;;;4997335;28;20056;-70
2022/08/15 08:46:24;;;;;;;12.35;8.65;;;24.80;99.90;;;;;;4999466;28;20556;-73
2022/08/15 08:49:12;;;;;;;9.20;8.02;;;24.80;99.90;;;;;;5000018;28;20145;-68
2022/08/15 08:52:02;;;;;;;8.05;7.25;;;24.90;99.90;;;;;;4996977;28;20188;-72
2022/08/15 08:55:02;;;;;;;9.45;7.93;;;25.10;99.90;;;;;;4998907;28;20064;-74
2022/08/15 08:57:44;;;;;;;8.90;7.70;;;25.30;99.90;;;;;;4995819;28;20057;-70
2022/08/15 09:00:24;;;;;;;8.65;7.60;;;25.50;99.90;;;;;;4999743;28;20056;-70
2022/08/15 09:03:14;;;;;;;11.00;7.75;;;25.80;99.90;;;;;;4998966;28;20768;-69
2022/08/15 09:05:51;;;;;;;8.23;7.53;;;25.90;99.90;;;;;;4996471;28;20096;-71
2022/08/15 09:08:32;;;;;;;7.82;7.15;;;26.10;99.90;;;;;;4998706;28;20065;-70
2022/08/15 09:11:09;;;;;;;7.75;6.97;;;26.30;99.90;;;;;;4998474;28;20050;-70
2022/08/15 09:13:39;;;;;;;12.82;7.25;;;26.40;99.90;;;;;;4996403;28;20063;-70
2022/08/15 09:16:30;;;;;;;7.53;6.72;;;26.50;99.90;;;;;;4998559;28;20370;-68
2022/08/15 09:19:09;;;;;;;7.38;6.85;;;26.60;99.90;;;;;;4998663;28;20399;-71
2022/08/15 09:21:40;;;;;;;8.27;7.63;;;26.60;99.90;;;;;;4997300;28;20368;-71
2022/08/15 09:24:12;;;;;;;15.43;9.27;;;26.60;99.90;;;;;;4998354;28;20111;-67
2022/08/15 09:27:14;;;;;;;9.82;7.05;;;26.80;99.90;;;;;;4998240;28;20062;-69
2022/08/15 09:29:54;;;;;;;8.98;7.43;;;26.90;99.90;;;;;;4996734;28;20053;-74
2022/08/15 09:32:29;;;;;;;9.32;6.82;;;27.00;99.90;;;;;;4998602;28;20664;-73
2022/08/15 09:35:17;;;;;;;8.95;7.72;;;27.20;99.90;;;;;;4996764;28;20483;-69
2022/08/15 09:38:20;;;;;;;11.82;8.38;;;27.30;99.90;;;;;;4997455;28;20041;-70
2022/08/15 09:41:01;;;;;;;9.43;7.32;;;27.20;99.90;;;;;;4998044;28;20041;-72
2022/08/15 09:44:20;;;;;;;9.57;7.13;;;27.40;99.90;;;;;;4997049;28;20054;-72
2022/08/15 09:47:25;;;;;;;8.85;8.02;;;27.50;99.90;;;;;;4981638;28;20686;-73
2022/08/15 09:50:27;;;;;;;9.00;7.68;;;27.60;99.90;;;;;;4996650;28;20590;-76
2022/08/15 09:53:17;;;;;;;8.15;7.20;;;27.70;99.90;;;;;;4998777;28;20052;-72
2022/08/15 09:55:48;;;;;;;9.27;7.53;;;27.80;99.90;;;;;;4996036;28;20050;-70
2022/08/15 09:58:24;;;;;;;10.52;7.18;;;27.90;99.90;;;;;;4998483;28;20376;-70
2022/08/15 10:01:18;;;;;;;7.82;7.22;;;28.00;99.90;;;;;;4998085;28;20148;-70
2022/08/15 10:03:54;;;;;;;7.50;6.90;;;28.00;99.90;;;;;;4997153;28;20053;-74
2022/08/15 10:06:33;;;;;;;8.57;6.68;;;28.00;99.90;;;;;;4997892;28;20159;-69
2022/08/15 10:09:37;;;;;;;7.80;6.97;;;28.00;99.90;;;;;;4998117;28;20902;-68
2022/08/15 10:12:09;;;;;;;8.95;7.20;;;27.90;99.90;;;;;;4998403;28;20476;-69
2022/08/15 10:14:48;;;;;;;8.00;7.20;;;27.90;99.90;;;;;;4998522;28;20038;-68
2022/08/15 10:17:37;;;;;;;9.23;7.68;;;28.00;99.90;;;;;;4998365;28;20156;-68
2022/08/15 10:20:14;;;;;;;8.48;7.30;;;28.10;99.90;;;;;;5002226;28;20838;-69
2022/08/15 10:22:59;;;;;;;8.82;7.07;;;28.30;99.90;;;;;;5002112;28;20073;-69
2022/08/15 10:25:35;;;;;;;8.02;7.32;;;28.20;99.90;;;;;;5000208;28;20041;-69
2022/08/15 10:28:11;;;;;;;7.72;6.75;;;28.10;99.90;;;;;;5002132;28;20143;-69
2022/08/15 10:31:00;;;;;;;10.93;8.55;;;28.10;99.90;;;;;;5002491;28;20046;-68
2022/08/15 10:33:30;;;;;;;8.57;7.27;;;28.20;99.90;;;;;;5000718;28;20060;-69
2022/08/15 10:36:14;;;;;;;9.52;7.28;;;28.20;99.90;;;;;;5003284;28;20093;-68
2022/08/15 10:39:17;;;;;;;7.53;6.72;;;28.30;99.90;;;;;;5002036;28;20049;-68
2022/08/15 10:42:10;;;;;;;8.52;7.68;;;28.40;99.90;;;;;;4999994;28;20515;-68
2022/08/15 10:45:12;;;;;;;9.27;8.00;;;28.40;99.90;;;;;;5002449;28;20062;-69
2022/08/15 10:48:01;;;;;;;7.15;6.55;;;28.50;99.90;;;;;;5000627;28;21416;-68
2022/08/15 10:50:51;;;;;;;11.02;7.63;;;28.50;99.90;;;;;;5001167;28;20083;-69
2022/08/15 10:53:27;;;;;;;7.78;7.10;;;28.60;99.90;;;;;;4999662;28;20048;-70
2022/08/15 10:56:08;;;;;;;6.63;6.05;;;28.60;99.90;;;;;;5000886;28;20045;-69
2022/08/15 10:59:02;;;;;;;7.35;6.65;;;28.70;99.90;;;;;;5001159;28;20718;-72
2022/08/15 11:01:32;;;;;;;9.75;8.07;;;28.90;99.90;;;;;;4999726;28;20076;-71
2022/08/15 11:04:13;;;;;;;8.43;7.57;;;28.90;99.90;;;;;;4998510;28;20061;-71
2022/08/15 11:07:02;;;;;;;7.70;7.07;;;29.00;99.90;;;;;;4998053;28;20049;-75
2022/08/15 11:09:34;;;;;;;9.73;6.93;;;29.00;99.90;;;;;;4997217;28;20532;-69
2022/08/15 11:12:07;;;;;;;9.05;8.15;;;29.10;99.90;;;;;;4999627;28;20502;-72
2022/08/15 11:14:43;;;;;;;7.25;6.72;;;29.40;99.90;;;;;;5000237;28;20046;-68
2022/08/15 11:17:18;;;;;;;7.63;7.03;;;29.60;99.90;;;;;;4999507;28;20053;-71
2022/08/15 11:19:51;;;;;;;13.75;6.88;;;29.80;99.90;;;;;;5000729;28;20064;-71
2022/08/15 11:22:46;;;;;;;9.10;7.03;;;30.00;99.90;;;;;;5000289;28;20058;-70
2022/08/15 11:25:19;;;;;;;7.63;6.32;;;30.00;99.90;;;;;;4997807;28;20053;-68
2022/08/15 11:28:12;;;;;;;8.68;6.47;;;29.90;99.90;;;;;;5001036;28;20076;-73
2022/08/15 11:31:06;;;;;;;8.27;7.40;;;30.00;99.90;;;;;;5000330;28;20049;-72
2022/08/15 11:33:49;;;;;;;8.75;7.97;;;30.30;99.90;;;;;;4998022;28;20137;-71
2022/08/15 11:36:27;;;;;;;11.65;8.10;;;30.50;99.90;;;;;;5000006;28;20219;-74
2022/08/15 11:39:14;;;;;;;6.50;5.90;;;30.60;99.90;;;;;;4999802;28;20153;-69
2022/08/15 11:41:58;;;;;;;9.10;7.75;;;30.60;99.90;;;;;;4998515;28;20161;-71
2022/08/15 11:44:39;;;;;;;7.63;7.03;;;30.60;99.90;;;;;;5000347;28;20144;-71
2022/08/15 11:47:13;;;;;;;7.38;6.30;;;30.60;99.90;;;;;;5000265;28;20808;-71
2022/08/15 11:49:51;;;;;;;8.35;6.85;;;30.60;99.90;;;;;;4999194;28;20053;-70
2022/08/15 11:52:25;;;;;;;7.40;6.70;;;30.70;99.90;;;;;;4999872;28;20112;-69
2022/08/15 11:55:30;;;;;;;7.72;6.93;;;30.80;99.90;;;;;;4997567;28;20050;-71
2022/08/15 11:58:13;;;;;;;6.65;6.05;;;30.90;99.90;;;;;;4999992;28;20111;-70
2022/08/15 12:00:51;;;;;;;7.20;6.50;;;31.00;99.60;;;;;;4999524;28;20046;-71
2022/08/15 12:03:30;;;;;;;7.85;7.05;;;31.00;99.60;;;;;;4997977;28;20341;-71
2022/08/15 12:06:27;;;;;;;8.30;6.07;;;30.90;99.00;;;;;;4998504;28;20053;-69
2022/08/15 12:09:22;;;;;;;9.68;8.15;;;31.00;99.80;;;;;;4997416;28;20050;-71
2022/08/15 12:12:37;;;;;;;8.18;6.60;;;30.90;98.90;;;;;;4999245;28;20056;-71
2022/08/15 12:15:41;;;;;;;10.63;6.88;;;30.70;98.90;;;;;;4996791;28;20080;-71
2022/08/15 12:18:18;;;;;;;7.70;6.93;;;30.80;99.40;;;;;;5000135;28;20041;-70
2022/08/15 12:21:09;;;;;;;9.02;6.80;;;30.80;99.10;;;;;;4998995;28;21154;-71
2022/08/15 12:23:47;;;;;;;7.90;7.20;;;30.80;99.00;;;;;;4996874;28;20056;-69
2022/08/15 12:26:18;;;;;;;8.30;6.63;;;30.70;99.20;;;;;;4998058;28;20133;-70
2022/08/15 12:29:07;;;;;;;13.02;7.47;;;30.70;99.10;;;;;;4999007;28;20049;-71
2022/08/15 12:31:36;;;;;;;;;;;30.70;98.90;;;;;;4997788;28;20038;-70
2022/08/15 12:34:14;;;;;;;6.82;6.22;;;30.70;99.40;;;;;;4998703;28;20104;-70
2022/08/15 12:37:03;;;;;;;7.60;6.88;;;30.70;99.40;;;;;;4998543;28;20046;-68
2022/08/15 12:39:39;;;;;;;7.28;6.68;;;30.60;99.70;;;;;;4996558;28;20108;-71
2022/08/15 12:42:32;;;;;;;7.97;7.18;;;30.50;98.10;;;;;;4998839;28;20125;-68
2022/08/15 12:45:19;;;;;;;7.90;7.10;;;30.50;99.00;;;;;;4995970;28;20081;-71
2022/08/15 12:47:47;;;;;;;7.00;5.78;;;30.60;98.00;;;;;;4997731;28;20102;-71
2022/08/15 12:50:35;;;;;;;8.50;7.07;;;30.40;98.90;;;;;;4998392;28;21484;-69
2022/08/15 12:53:04;;;;;;;6.88;6.18;;;30.40;98.90;;;;;;4999036;28;20046;-71
2022/08/15 12:55:40;;;;;;;7.55;6.82;;;30.40;99.80;;;;;;4996804;28;20657;-71
2022/08/15 12:58:09;;;;;;;6.68;6.07;;;30.40;98.90;;;;;;4998899;28;20145;-69
2022/08/15 13:00:46;;;;;;;7.95;7.15;;;30.60;99.10;;;;;;4998556;28;20109;-69
2022/08/15 13:03:33;;;;;;;6.93;6.32;;;30.60;98.40;;;;;;4997203;28;20135;-70
2022/08/15 13:06:26;;;;;;;6.68;6.10;;;30.50;98.20;;;;;;4998186;28;20114;-71
2022/08/15 13:08:59;;;;;;;8.98;7.20;;;30.60;98.10;;;;;;4997027;28;20057;-71
2022/08/15 13:11:26;;;;;;;7.75;6.55;;;30.80;98.60;;;;;;4996379;28;20081;-70
2022/08/15 13:13:53;;;;;;;6.78;5.75;;;30.80;98.20;;;;;;4997537;28;20053;-70
2022/08/15 13:16:22;;;;;;;6.85;6.30;;;30.80;98.70;;;;;;4997283;28;20038;-69
2022/08/15 13:19:12;;;;;;;6.70;5.55;;;30.70;97.40;;;;;;4995794;28;20054;-69
2022/08/15 13:24:33;;;;;;;;;;;30.50;98.70;;;;;;4996955;28;20142;-71
2022/08/15 13:27:02;;;;;;;6.72;6.13;;;30.40;97.00;;;;;;4995892;28;19925;-71
2022/08/15 13:29:30;;;;;;;6.57;6.07;;;30.40;97.40;;;;;;4996555;28;20054;-70
2022/08/15 13:32:00;;;;;;;7.15;6.45;;;30.50;97.80;;;;;;4997461;28;20052;-71
2022/08/15 13:34:31;;;;;;;8.35;5.95;;;30.60;96.70;;;;;;4998046;28;20128;-68
2022/08/15 13:37:12;;;;;;;6.28;5.68;;;30.60;97.80;;;;;;4995773;28;20054;-72
2022/08/15 13:39:39;;;;;;;7.07;6.35;;;30.60;97.00;;;;;;4998208;28;20056;-69
2022/08/15 13:42:22;;;;;;;8.27;6.55;;;30.60;98.00;;;;;;4998774;28;20464;-71
2022/08/15 13:45:04;;;;;;;6.03;5.45;;;30.70;97.10;;;;;;4998049;28;20073;-71
2022/08/15 13:47:33;;;;;;;;;;;30.80;97.70;;;;;;4998179;28;20061;-69
2022/08/15 13:50:19;;;;;;;9.52;7.30;;;30.80;97.30;;;;;;4997454;28;19925;-69
2022/08/15 13:52:50;;;;;;;6.85;6.20;;;30.70;97.30;;;;;;5000492;28;20061;-71
2022/08/15 13:55:24;;;;;;;7.25;6.68;;;30.60;97.50;;;;;;4999358;28;20139;-71
2022/08/15 13:57:55;;;;;;;7.63;6.78;;;30.40;96.90;;;;;;5002381;28;20041;-71
2022/08/15 14:00:43;;;;;;;8.82;7.32;;;30.20;96.90;;;;;;5001638;28;20295;-69
2022/08/15 14:03:32;;;;;;;7.32;6.63;;;30.10;97.80;;;;;;5000489;28;20049;-71